Skip Navigation Links Skip Navigation Links

Current Weather

Napa County, Napa, Calif.

For information only: do not use for flight planning or navigation.
Latest weather
Observation time Thursday, December 3, 2020 10:54 PM PST
Local time Thursday, December 3, 2020 11:19 PM PST
Flight conditions Visual Meteorological Conditions
Winds
Wind direction Northeast (40°)
Wind speed 3 mph
Visibility 9 mi.
Sky condition
Ceiling unlimited
Sky clear
Temperature 44°F
Dewpoint 35°F
Altimeter 30.32 in.Hg
Derived measurements
Relative humidity 70%
Wind chill 43°F
Density altitude -1320 ft.
Sea-level pressure 30.29 in.Hg
Remarks
Fully automated report.
Automated weather observing station with precipitation discriminator.
METAR KAPC 040654Z AUTO 04003KT 9SM CLR 07/02 A3032 RMK AO2 SLP258 T00670017

Settings

Location code

InnerDrive.Weather 4.0.6770.0 Release CLR 4.0.30319.42000
Copyright ©2018 Inner Drive Technology. All rights reserved. Portions Copyright ©1986-2018 David Braverman.

Find weather

Site navigation


Skip Navigation Links

Place info

Page info

PayPal - The safer, easier way to pay online!

Return home.

Copyright ©2020 Inner Drive Technology. Purveyors of fine, hand-crafted computer software. Page printed 2020-12-04T07:19:20 UTC.